createdAt,value
2019-01-25T00:02:00.364Z,0.90
2019-01-25T00:04:30.488Z,0.90
2019-01-25T00:07:01.560Z,0.90
2019-01-25T00:09:31.691Z,0.90
2019-01-25T00:12:01.963Z,0.80
2019-01-25T00:14:32.083Z,0.80
2019-01-25T00:17:02.256Z,0.80
2019-01-25T00:19:32.371Z,0.60
2019-01-25T00:22:02.531Z,0.60
2019-01-25T00:24:32.667Z,0.60
2019-01-25T00:27:02.824Z,0.70
2019-01-25T00:29:32.981Z,0.60
2019-01-25T00:32:03.128Z,0.60
2019-01-25T00:34:33.619Z,0.60
2019-01-25T00:37:03.767Z,0.60
2019-01-25T00:39:33.903Z,0.50
2019-01-25T00:42:04.623Z,0.60
2019-01-25T00:44:34.784Z,0.60
2019-01-25T00:47:04.913Z,0.50
2019-01-25T00:49:35.219Z,0.50
2019-01-25T00:52:05.451Z,0.60
2019-01-25T00:54:35.602Z,0.60
2019-01-25T00:57:05.747Z,0.50
2019-01-25T00:59:35.907Z,0.70
2019-01-25T01:02:06.235Z,0.70
2019-01-25T01:04:36.376Z,0.70
2019-01-25T01:07:06.511Z,0.80
2019-01-25T01:09:37.247Z,0.70
2019-01-25T01:12:07.383Z,0.70
2019-01-25T01:14:37.540Z,0.80
2019-01-25T01:17:07.772Z,0.70
2019-01-25T01:19:37.925Z,0.70
2019-01-25T01:22:08.043Z,0.70
2019-01-25T01:24:38.178Z,0.70
2019-01-25T01:27:08.359Z,0.70
2019-01-25T01:29:39.480Z,0.70
2019-01-25T01:32:09.636Z,0.80
2019-01-25T01:34:39.780Z,0.80
2019-01-25T01:37:09.924Z,0.80
2019-01-25T01:39:40.080Z,0.90
2019-01-25T01:42:10.219Z,0.90
2019-01-25T01:44:40.375Z,0.90
2019-01-25T01:47:10.508Z,0.90
2019-01-25T01:49:40.656Z,0.90
2019-01-25T01:52:10.866Z,1.00
2019-01-25T01:54:40.996Z,1.00
2019-01-25T01:57:11.156Z,1.10
2019-01-25T01:59:41.464Z,1.10
2019-01-25T02:02:12.311Z,1.10
2019-01-25T02:04:42.467Z,1.10
2019-01-25T02:07:12.664Z,1.00
2019-01-25T02:09:42.795Z,1.00
2019-01-25T02:12:13.027Z,1.00
2019-01-25T02:14:43.218Z,1.00
2019-01-25T02:17:13.948Z,1.00
2019-01-25T02:19:44.100Z,1.00
2019-01-25T02:22:14.227Z,1.10
2019-01-25T02:24:45.218Z,1.10
2019-01-25T02:27:15.500Z,1.10
2019-01-25T02:29:45.647Z,1.10
2019-01-25T02:32:15.767Z,1.10
2019-01-25T02:34:45.939Z,1.20
2019-01-25T02:37:16.073Z,1.20
2019-01-25T02:39:46.252Z,1.20
2019-01-25T02:42:16.896Z,1.20
2019-01-25T02:44:47.833Z,1.30
2019-01-25T02:47:17.983Z,1.40
2019-01-25T02:49:48.188Z,1.30
2019-01-25T02:52:18.296Z,1.30
2019-01-25T02:54:48.456Z,1.40
2019-01-25T02:57:18.595Z,1.40
2019-01-25T02:59:48.736Z,1.40
2019-01-25T03:02:18.891Z,1.40
2019-01-25T03:04:49.104Z,1.40
2019-01-25T03:07:19.287Z,1.40
2019-01-25T03:09:49.444Z,1.40
2019-01-25T03:12:19.699Z,1.40
2019-01-25T03:14:50.751Z,1.40
2019-01-25T03:17:20.903Z,1.40
2019-01-25T03:19:51.047Z,1.40
2019-01-25T03:22:21.303Z,1.40
2019-01-25T03:24:51.680Z,1.30
2019-01-25T03:27:21.851Z,1.30
2019-01-25T03:29:52.007Z,1.30
2019-01-25T03:32:22.155Z,1.20
2019-01-25T03:34:52.405Z,1.20
2019-01-25T03:37:22.539Z,1.20
2019-01-25T03:39:52.697Z,1.20
2019-01-25T03:42:22.815Z,1.00
2019-01-25T03:44:52.992Z,0.90
2019-01-25T03:47:23.170Z,0.90
2019-01-25T03:49:53.343Z,0.80
2019-01-25T03:52:23.540Z,0.90
2019-01-25T03:54:53.669Z,0.90
2019-01-25T03:57:24.715Z,0.90
2019-01-25T03:59:54.937Z,1.00
2019-01-25T04:02:25.085Z,1.00
2019-01-25T04:04:55.243Z,0.90
2019-01-25T04:07:25.379Z,0.80
2019-01-25T04:09:55.509Z,0.90
2019-01-25T04:12:25.651Z,0.90
2019-01-25T04:14:55.784Z,0.80
2019-01-25T04:17:25.994Z,0.90
2019-01-25T04:19:56.075Z,0.90
2019-01-25T04:22:26.291Z,0.90
2019-01-25T04:24:56.531Z,0.90
2019-01-25T04:27:27.278Z,1.00
2019-01-25T04:29:57.408Z,1.00
2019-01-25T04:32:27.564Z,1.00
2019-01-25T04:34:57.803Z,0.90
2019-01-25T04:37:27.959Z,1.00
2019-01-25T04:39:58.088Z,1.00
2019-01-25T04:42:28.232Z,1.10
2019-01-25T04:44:58.363Z,1.10
2019-01-25T04:47:29.527Z,1.10
2019-01-25T04:49:59.655Z,1.10
2019-01-25T04:52:29.903Z,1.10
2019-01-25T04:55:02.046Z,1.10
2019-01-25T04:57:32.291Z,1.20
2019-01-25T05:00:02.500Z,1.20
2019-01-25T05:02:32.718Z,1.20
2019-01-25T05:05:02.856Z,1.20
2019-01-25T05:07:33.004Z,1.20
2019-01-25T05:10:03.155Z,1.20
2019-01-25T05:12:33.315Z,1.30
2019-01-25T05:15:03.453Z,1.30
2019-01-25T05:17:34.536Z,1.30
2019-01-25T05:20:05.576Z,1.30
2019-01-25T05:22:36.629Z,1.40
2019-01-25T05:25:06.830Z,1.40
2019-01-25T05:27:36.983Z,1.40
2019-01-25T05:30:10.085Z,1.50
2019-01-25T05:32:40.236Z,1.50
2019-01-25T05:35:10.736Z,1.50
2019-01-25T05:37:40.959Z,1.50
2019-01-25T05:40:15.058Z,1.50
2019-01-25T05:42:45.208Z,1.50
2019-01-25T05:45:15.940Z,1.60
2019-01-25T05:47:47.028Z,1.60
2019-01-25T05:50:17.375Z,1.60
2019-01-25T05:52:47.505Z,1.60
2019-01-25T05:55:19.357Z,1.60
2019-01-25T05:57:49.477Z,1.70
2019-01-25T06:00:26.100Z,1.70
2019-01-25T06:02:56.631Z,1.70
2019-01-25T06:05:26.791Z,1.80
2019-01-25T06:07:56.997Z,1.80
2019-01-25T06:10:33.023Z,1.80
2019-01-25T06:13:03.151Z,1.80
2019-01-25T06:15:33.283Z,1.80
2019-01-25T06:18:04.638Z,1.80
2019-01-25T06:20:34.760Z,1.80
2019-01-25T06:23:05.025Z,1.90
2019-01-25T06:25:35.719Z,1.90
2019-01-25T06:28:07.508Z,1.90
2019-01-25T06:30:37.664Z,1.90
2019-01-25T06:33:07.803Z,1.90
2019-01-25T06:35:38.435Z,2.00
2019-01-25T06:38:09.493Z,2.00
2019-01-25T06:40:41.193Z,2.00
2019-01-25T06:43:11.363Z,2.00
2019-01-25T06:45:42.191Z,2.00
2019-01-25T06:48:12.351Z,2.10
2019-01-25T06:50:43.668Z,2.00
2019-01-25T06:53:13.800Z,2.10
2019-01-25T06:55:44.048Z,2.10
2019-01-25T06:58:32.128Z,2.20
2019-01-25T07:01:12.615Z,2.20
2019-01-25T07:03:42.844Z,2.30
2019-01-25T07:06:12.991Z,2.30
2019-01-25T07:08:43.179Z,2.30
2019-01-25T07:11:14.360Z,2.30
2019-01-25T07:13:44.583Z,2.30
2019-01-25T07:16:14.807Z,2.40
2019-01-25T07:18:44.968Z,2.40
2019-01-25T07:21:15.808Z,2.40
2019-01-25T07:23:45.932Z,2.40
2019-01-25T07:26:17.124Z,2.40
2019-01-25T07:28:47.260Z,2.40
2019-01-25T07:31:17.512Z,2.40
2019-01-25T07:33:47.694Z,2.50
2019-01-25T07:36:17.890Z,2.50
2019-01-25T07:38:48.261Z,2.60
2019-01-25T07:41:18.548Z,2.50
2019-01-25T07:43:49.461Z,2.60
2019-01-25T07:46:19.580Z,2.60
2019-01-25T07:48:49.741Z,2.70
2019-01-25T07:51:19.872Z,2.70
2019-01-25T07:53:50.280Z,2.70
2019-01-25T07:56:20.423Z,2.70
2019-01-25T07:58:51.655Z,2.80
2019-01-25T08:01:21.796Z,2.90
2019-01-25T08:03:51.963Z,2.90
2019-01-25T08:06:22.126Z,2.80
2019-01-25T08:08:52.261Z,2.80
2019-01-25T08:11:22.440Z,2.80
2019-01-25T08:13:52.567Z,2.90
2019-01-25T08:16:22.792Z,2.90
2019-01-25T08:18:53.568Z,2.90
2019-01-25T08:21:23.900Z,3.00
2019-01-25T08:23:54.056Z,3.10
2019-01-25T08:26:24.304Z,3.00
2019-01-25T08:28:54.536Z,3.00
2019-01-25T08:31:24.656Z,3.00
2019-01-25T08:33:55.028Z,3.00
2019-01-25T08:36:25.997Z,3.10
2019-01-25T08:38:56.158Z,3.00
2019-01-25T08:41:26.288Z,3.10
2019-01-25T08:43:56.429Z,3.10
2019-01-25T08:46:26.581Z,3.10
2019-01-25T08:48:56.733Z,3.10
2019-01-25T08:51:27.801Z,3.10
2019-01-25T08:53:58.332Z,3.10
2019-01-25T08:56:29.494Z,3.10
2019-01-25T08:58:59.665Z,3.20
2019-01-25T09:01:29.780Z,3.20
2019-01-25T09:04:00.071Z,3.10
2019-01-25T09:06:30.207Z,3.10
2019-01-25T09:09:00.348Z,3.10
2019-01-25T09:11:32.103Z,3.10
2019-01-25T09:14:02.535Z,3.10
2019-01-25T09:16:32.669Z,3.10
2019-01-25T09:19:02.848Z,3.10
2019-01-25T09:21:32.985Z,3.10
2019-01-25T09:24:03.143Z,3.20
2019-01-25T09:26:33.279Z,3.20
2019-01-25T09:29:03.437Z,3.20
2019-01-25T09:31:34.547Z,3.20
2019-01-25T09:34:04.928Z,3.20
2019-01-25T09:36:35.079Z,3.20
2019-01-25T09:39:09.081Z,3.20
2019-01-25T09:41:39.617Z,3.20
2019-01-25T09:44:09.981Z,3.20
2019-01-25T09:46:40.191Z,3.10
2019-01-25T09:49:10.440Z,3.20
2019-01-25T09:51:41.094Z,3.20
2019-01-25T09:54:11.251Z,3.30
2019-01-25T09:56:41.411Z,3.20
2019-01-25T09:59:15.333Z,3.30
2019-01-25T10:01:45.473Z,3.30
2019-01-25T10:04:15.636Z,3.30
2019-01-25T10:06:46.383Z,3.20
2019-01-25T10:09:16.654Z,3.40
2019-01-25T10:11:46.916Z,3.40
2019-01-25T10:14:17.079Z,3.40
2019-01-25T10:16:47.212Z,3.40
2019-01-25T10:19:17.366Z,3.40
2019-01-25T10:21:48.145Z,3.50
2019-01-25T10:24:18.435Z,3.40
2019-01-25T10:26:48.611Z,3.50
2019-01-25T10:29:18.880Z,3.50
2019-01-25T10:31:49.185Z,3.50
2019-01-25T10:34:19.531Z,3.50
2019-01-25T10:36:49.663Z,3.50
2019-01-25T10:39:20.236Z,3.50
2019-01-25T10:41:50.449Z,3.60
2019-01-25T10:44:20.583Z,3.70
2019-01-25T10:46:52.337Z,3.80
2019-01-25T10:49:22.599Z,3.70
2019-01-25T10:51:53.156Z,3.70
2019-01-25T10:54:23.319Z,3.70
2019-01-25T10:56:53.548Z,3.80
2019-01-25T10:59:24.659Z,3.80
2019-01-25T11:01:54.796Z,3.80
2019-01-25T11:04:25.636Z,3.80
2019-01-25T11:06:56.240Z,3.80
2019-01-25T11:09:27.368Z,3.80
2019-01-25T11:11:57.495Z,3.80
2019-01-25T11:14:27.727Z,3.80
2019-01-25T11:16:57.880Z,3.90
2019-01-25T11:19:28.028Z,3.90
2019-01-25T11:21:58.237Z,4.00
2019-01-25T11:24:28.375Z,4.00
2019-01-25T11:27:00.410Z,4.10
2019-01-25T11:29:30.299Z,4.10
2019-01-25T11:32:00.451Z,4.10
2019-01-25T11:34:33.089Z,4.20
2019-01-25T11:37:03.471Z,4.20
2019-01-25T11:39:33.855Z,4.20
2019-01-25T11:42:03.999Z,4.20
2019-01-25T11:44:34.168Z,4.20
2019-01-25T11:47:04.304Z,4.20
2019-01-25T11:49:34.547Z,4.20
2019-01-25T11:52:04.895Z,4.30
2019-01-25T11:54:35.002Z,4.20
2019-01-25T11:57:05.487Z,4.20
2019-01-25T11:59:35.615Z,4.30
2019-01-25T12:02:06.675Z,4.30
2019-01-25T12:04:38.159Z,4.30
2019-01-25T12:07:08.323Z,4.20
2019-01-25T12:09:38.547Z,4.30
2019-01-25T12:12:08.737Z,4.40
2019-01-25T12:14:39.810Z,4.30
2019-01-25T12:17:10.260Z,4.30
2019-01-25T12:19:40.471Z,4.30
2019-01-25T12:22:10.692Z,4.30
2019-01-25T12:24:40.827Z,4.30
2019-01-25T12:27:10.991Z,4.30
2019-01-25T12:29:41.147Z,4.30
2019-01-25T12:32:12.080Z,4.30
2019-01-25T12:34:42.223Z,4.30
2019-01-25T12:37:12.373Z,4.40
2019-01-25T12:39:42.527Z,4.40
2019-01-25T12:42:12.656Z,4.40
2019-01-25T12:44:42.836Z,4.30
2019-01-25T12:47:12.971Z,4.40
2019-01-25T12:49:43.657Z,4.40
2019-01-25T12:52:13.940Z,4.40
2019-01-25T12:54:44.183Z,4.30
2019-01-25T12:57:14.431Z,4.30
2019-01-25T12:59:45.151Z,4.30
2019-01-25T13:02:15.291Z,4.20
2019-01-25T13:04:45.439Z,4.30
2019-01-25T13:07:15.572Z,4.30
2019-01-25T13:09:45.811Z,4.20
2019-01-25T13:12:15.945Z,4.30
2019-01-25T13:14:46.487Z,4.30
2019-01-25T13:17:16.688Z,4.20
2019-01-25T13:19:46.844Z,4.20
2019-01-25T13:22:16.979Z,4.20
2019-01-25T13:24:47.115Z,4.20
2019-01-25T13:27:17.255Z,4.20
2019-01-25T13:29:48.337Z,4.40
2019-01-25T13:32:18.567Z,4.30
2019-01-25T13:34:48.724Z,4.40
2019-01-25T13:37:18.851Z,4.30
2019-01-25T13:39:49.067Z,4.30
2019-01-25T13:42:19.211Z,4.40
2019-01-25T13:44:49.372Z,4.30
2019-01-25T13:47:19.571Z,4.40
2019-01-25T13:49:49.739Z,4.40
2019-01-25T13:52:19.893Z,4.40
2019-01-25T13:54:50.039Z,4.30
2019-01-25T13:57:20.176Z,4.20
2019-01-25T13:59:50.339Z,4.30
2019-01-25T14:02:21.470Z,4.40
2019-01-25T14:04:52.112Z,4.30
2019-01-25T14:07:22.259Z,4.40
2019-01-25T14:09:52.388Z,4.40
2019-01-25T14:12:22.547Z,4.30
2019-01-25T14:14:52.759Z,4.30
2019-01-25T14:17:22.900Z,4.40
2019-01-25T14:19:53.147Z,4.30
2019-01-25T14:22:23.272Z,4.40
2019-01-25T14:24:53.451Z,4.30
2019-01-25T14:27:23.640Z,4.40
2019-01-25T14:29:53.787Z,4.30
2019-01-25T14:32:23.956Z,4.40
2019-01-25T14:34:54.251Z,4.40
2019-01-25T14:37:24.419Z,4.30
2019-01-25T14:39:54.641Z,4.30
2019-01-25T14:42:24.843Z,4.40
2019-01-25T14:44:55.010Z,4.30
2019-01-25T14:47:25.167Z,4.30
2019-01-25T14:49:56.238Z,4.20
2019-01-25T14:52:26.427Z,4.30
2019-01-25T14:54:56.700Z,4.20
2019-01-25T14:57:26.833Z,4.30
2019-01-25T14:59:56.995Z,4.40
2019-01-25T15:02:27.119Z,4.40
2019-01-25T15:04:57.272Z,4.30
2019-01-25T15:07:28.172Z,4.30
2019-01-25T15:09:58.408Z,4.30
2019-01-25T15:12:28.582Z,4.30
2019-01-25T15:14:58.747Z,4.40
2019-01-25T15:17:28.891Z,4.40
2019-01-25T15:19:59.041Z,4.40
2019-01-25T15:22:29.179Z,4.40
2019-01-25T15:24:59.745Z,4.40
2019-01-25T15:27:29.964Z,4.50
2019-01-25T15:30:00.253Z,4.40
2019-01-25T15:32:30.470Z,4.40
2019-01-25T15:35:00.690Z,4.30
2019-01-25T15:37:30.781Z,4.40
2019-01-25T15:40:01.496Z,4.30
2019-01-25T15:42:32.000Z,4.40
2019-01-25T15:45:02.281Z,4.40
2019-01-25T15:47:32.591Z,4.50
2019-01-25T15:50:02.722Z,4.40
2019-01-25T15:52:32.869Z,4.40
2019-01-25T15:55:03.521Z,4.40
2019-01-25T15:57:33.945Z,4.40
2019-01-25T16:00:06.580Z,4.50
2019-01-25T16:02:37.283Z,4.40
2019-01-25T16:05:07.843Z,4.40
2019-01-25T16:07:38.061Z,4.40
2019-01-25T16:10:10.740Z,4.40
2019-01-25T16:12:40.868Z,4.50
2019-01-25T16:15:13.839Z,4.50
2019-01-25T16:17:44.651Z,4.50
2019-01-25T16:20:15.675Z,4.50
2019-01-25T16:22:46.003Z,4.50
2019-01-25T16:25:18.331Z,4.50
2019-01-25T16:27:48.511Z,4.60
2019-01-25T16:30:21.999Z,4.60
2019-01-25T16:32:53.118Z,4.50
2019-01-25T16:35:23.439Z,4.50
2019-01-25T16:37:53.707Z,4.60
2019-01-25T16:40:24.643Z,4.60
2019-01-25T16:42:54.797Z,4.50
2019-01-25T16:45:31.139Z,4.50
2019-01-25T16:48:02.237Z,4.60
2019-01-25T16:50:32.717Z,4.50
2019-01-25T16:53:02.975Z,4.60
2019-01-25T16:55:33.086Z,4.50
2019-01-25T16:58:03.241Z,4.50
2019-01-25T17:00:40.762Z,4.50
2019-01-25T17:03:11.303Z,4.60
2019-01-25T17:05:41.531Z,4.50
2019-01-25T17:08:11.676Z,4.60
2019-01-25T17:10:41.927Z,4.70
2019-01-25T17:13:12.386Z,4.50
2019-01-25T17:15:42.520Z,4.50
2019-01-25T17:18:13.219Z,4.50
2019-01-25T17:20:43.356Z,4.50
2019-01-25T17:23:13.519Z,4.50
2019-01-25T17:25:43.654Z,4.60
2019-01-25T17:28:13.787Z,4.60
2019-01-25T17:30:44.996Z,4.60
2019-01-25T17:33:15.873Z,4.60
2019-01-25T17:35:46.027Z,4.70
2019-01-25T17:38:17.327Z,4.60
2019-01-25T17:40:47.757Z,4.60
2019-01-25T17:43:17.895Z,4.50
2019-01-25T17:45:48.072Z,4.60
2019-01-25T17:48:18.362Z,4.60
2019-01-25T17:50:48.491Z,4.60
2019-01-25T17:53:18.808Z,4.60
2019-01-25T17:55:49.428Z,4.60
2019-01-25T17:58:19.639Z,4.60
2019-01-25T18:00:55.239Z,4.70
2019-01-25T18:03:25.711Z,4.70
2019-01-25T18:05:55.879Z,4.70
2019-01-25T18:08:26.035Z,4.60
2019-01-25T18:10:56.162Z,4.70
2019-01-25T18:13:26.402Z,4.70
2019-01-25T18:15:56.531Z,4.70
2019-01-25T18:18:26.675Z,4.80
2019-01-25T18:20:56.820Z,4.70
2019-01-25T18:23:27.663Z,4.70
2019-01-25T18:26:01.788Z,4.70
2019-01-25T18:29:00.507Z,4.70
2019-01-25T18:31:31.775Z,4.70
2019-01-25T18:34:02.542Z,4.80
2019-01-25T18:36:32.711Z,4.80
2019-01-25T18:39:03.217Z,4.90
2019-01-25T18:41:35.383Z,4.80
2019-01-25T18:44:06.603Z,4.80
2019-01-25T18:46:36.782Z,4.80
2019-01-25T18:49:06.911Z,4.80
2019-01-25T18:51:37.227Z,4.80
2019-01-25T18:54:07.367Z,4.90
2019-01-25T18:56:37.883Z,4.90
2019-01-25T18:59:08.256Z,4.90
2019-01-25T19:01:38.485Z,4.90
2019-01-25T19:04:08.619Z,4.90
2019-01-25T19:06:38.766Z,4.90
2019-01-25T19:09:10.219Z,4.90
2019-01-25T19:11:40.671Z,4.90
2019-01-25T19:14:11.145Z,4.90
2019-01-25T19:16:41.279Z,5.00
2019-01-25T19:19:11.459Z,4.90
2019-01-25T19:21:41.556Z,5.00
2019-01-25T19:24:11.800Z,5.10
2019-01-25T19:26:41.939Z,5.00
2019-01-25T19:29:12.991Z,5.00
2019-01-25T19:31:43.376Z,5.10
2019-01-25T19:34:13.663Z,5.00
2019-01-25T19:36:43.795Z,5.10
2019-01-25T19:39:15.179Z,5.10
2019-01-25T19:41:45.321Z,5.20
2019-01-25T19:44:15.481Z,5.20
2019-01-25T19:46:45.612Z,5.20
2019-01-25T19:49:16.006Z,5.10
2019-01-25T19:51:46.135Z,5.20
2019-01-25T19:54:16.487Z,5.20
2019-01-25T19:56:46.635Z,5.20
2019-01-25T19:59:16.775Z,5.30
2019-01-25T20:01:46.923Z,5.30
2019-01-25T20:04:18.067Z,5.30
2019-01-25T20:06:48.375Z,5.30
2019-01-25T20:09:19.475Z,5.30
2019-01-25T20:11:50.635Z,5.30
2019-01-25T20:14:20.848Z,5.30
2019-01-25T20:16:50.995Z,5.30
2019-01-25T20:19:21.129Z,5.30
2019-01-25T20:21:51.292Z,5.40
2019-01-25T20:24:21.427Z,5.40
2019-01-25T20:26:51.586Z,5.40
2019-01-25T20:29:21.712Z,5.40
2019-01-25T20:31:51.939Z,5.50
2019-01-25T20:34:22.239Z,5.50
2019-01-25T20:36:53.047Z,5.50
2019-01-25T20:39:23.262Z,5.60
2019-01-25T20:41:53.400Z,5.60
2019-01-25T20:44:23.567Z,5.70
2019-01-25T20:46:53.715Z,5.60
2019-01-25T20:49:24.066Z,5.70
2019-01-25T20:51:54.199Z,5.70
2019-01-25T20:54:24.352Z,5.70
2019-01-25T20:56:54.511Z,5.80
2019-01-25T20:59:24.639Z,5.70
2019-01-25T21:01:54.783Z,5.80
2019-01-25T21:04:25.704Z,5.80
2019-01-25T21:06:55.847Z,5.80
2019-01-25T21:09:26.072Z,5.80
2019-01-25T21:11:56.260Z,5.70
2019-01-25T21:14:26.420Z,5.80
2019-01-25T21:16:56.547Z,5.80
2019-01-25T21:19:26.982Z,5.80
2019-01-25T21:21:57.207Z,5.80
2019-01-25T21:24:27.378Z,5.90
2019-01-25T21:26:57.511Z,5.80
2019-01-25T21:29:28.844Z,5.90
2019-01-25T21:31:58.995Z,5.90
2019-01-25T21:34:29.883Z,5.90
2019-01-25T21:37:00.011Z,5.90
2019-01-25T21:39:30.357Z,6.00
2019-01-25T21:42:00.483Z,6.00
2019-01-25T21:44:30.636Z,5.90
2019-01-25T21:47:00.783Z,6.00
2019-01-25T21:49:30.915Z,6.00
2019-01-25T21:52:01.275Z,6.00
2019-01-25T21:54:31.441Z,6.10
2019-01-25T21:57:01.638Z,6.10
2019-01-25T21:59:31.759Z,6.10
2019-01-25T22:02:01.916Z,6.20
2019-01-25T22:04:32.040Z,6.10
2019-01-25T22:07:03.107Z,6.20
2019-01-25T22:09:33.499Z,6.20
2019-01-25T22:12:03.755Z,6.20
2019-01-25T22:14:34.817Z,6.20
2019-01-25T22:17:05.195Z,6.30
2019-01-25T22:19:35.319Z,6.30
2019-01-25T22:22:06.263Z,6.30
2019-01-25T22:24:36.393Z,6.30
2019-01-25T22:27:06.571Z,6.40
2019-01-25T22:29:37.415Z,6.40
2019-01-25T22:32:07.573Z,6.40
2019-01-25T22:34:37.695Z,6.40
2019-01-25T22:37:07.857Z,6.40
2019-01-25T22:39:38.082Z,6.40
2019-01-25T22:42:09.131Z,6.40
2019-01-25T22:44:39.781Z,6.40
2019-01-25T22:47:10.079Z,6.40
2019-01-25T22:49:40.231Z,6.40
2019-01-25T22:52:10.372Z,6.40
2019-01-25T22:54:40.628Z,6.50
2019-01-25T22:57:10.727Z,6.50
2019-01-25T22:59:40.873Z,6.50
2019-01-25T23:02:12.075Z,6.50
2019-01-25T23:05:23.118Z,6.50
2019-01-25T23:07:53.419Z,6.50
2019-01-25T23:10:24.147Z,6.50
2019-01-25T23:12:54.450Z,6.60
2019-01-25T23:15:24.589Z,6.60
2019-01-25T23:17:54.719Z,6.60
2019-01-25T23:20:24.863Z,6.60
2019-01-25T23:22:55.979Z,6.60
2019-01-25T23:25:26.108Z,6.60
2019-01-25T23:27:56.992Z,6.60
2019-01-25T23:30:27.143Z,6.70
2019-01-25T23:32:57.291Z,6.70
2019-01-25T23:35:27.455Z,6.70
2019-01-25T23:37:57.672Z,6.70
2019-01-25T23:40:27.827Z,6.80
2019-01-25T23:42:57.956Z,6.80
2019-01-25T23:45:28.127Z,6.80
2019-01-25T23:47:58.283Z,6.80
2019-01-25T23:50:28.424Z,6.70
2019-01-25T23:52:58.570Z,6.80
2019-01-25T23:55:28.705Z,6.80
2019-01-25T23:57:58.931Z,6.80
